sensor_id;sensor_type;location;lat;lon;timestamp;temperature;humidity
53962;DHT22;39868;53.398;6.564;2023-12-28T00:00:26;11.80;85.90
53962;DHT22;39868;53.398;6.564;2023-12-28T00:02:54;11.80;85.90
53962;DHT22;39868;53.398;6.564;2023-12-28T00:05:21;11.90;86.00
53962;DHT22;39868;53.398;6.564;2023-12-28T00:07:48;11.90;86.00
53962;DHT22;39868;53.398;6.564;2023-12-28T00:10:25;11.90;85.90
53962;DHT22;39868;53.398;6.564;2023-12-28T00:12:53;11.90;85.90
53962;DHT22;39868;53.398;6.564;2023-12-28T00:15:22;11.90;86.50
53962;DHT22;39868;53.398;6.564;2023-12-28T00:17:49;12.00;85.90
53962;DHT22;39868;53.398;6.564;2023-12-28T00:20:17;12.00;85.90
53962;DHT22;39868;53.398;6.564;2023-12-28T00:22:44;12.00;85.80
53962;DHT22;39868;53.398;6.564;2023-12-28T00:25:11;12.00;85.70
53962;DHT22;39868;53.398;6.564;2023-12-28T00:27:39;12.00;85.70
53962;DHT22;39868;53.398;6.564;2023-12-28T00:30:06;12.00;85.70
53962;DHT22;39868;53.398;6.564;2023-12-28T00:32:34;12.00;85.70
53962;DHT22;39868;53.398;6.564;2023-12-28T00:35:01;12.10;85.70
53962;DHT22;39868;53.398;6.564;2023-12-28T00:37:28;12.00;85.70
53962;DHT22;39868;53.398;6.564;2023-12-28T00:39:56;12.00;85.70
53962;DHT22;39868;53.398;6.564;2023-12-28T00:42:23;12.00;85.70
53962;DHT22;39868;53.398;6.564;2023-12-28T00:44:51;12.10;85.70
53962;DHT22;39868;53.398;6.564;2023-12-28T00:47:19;12.10;85.70
53962;DHT22;39868;53.398;6.564;2023-12-28T00:49:46;12.00;85.80
53962;DHT22;39868;53.398;6.564;2023-12-28T00:52:13;12.00;85.90
53962;DHT22;39868;53.398;6.564;2023-12-28T00:54:41;12.10;86.10
53962;DHT22;39868;53.398;6.564;2023-12-28T00:57:08;12.10;86.20
53962;DHT22;39868;53.398;6.564;2023-12-28T00:59:36;12.10;86.30
53962;DHT22;39868;53.398;6.564;2023-12-28T01:02:03;12.10;86.30
53962;DHT22;39868;53.398;6.564;2023-12-28T01:04:30;12.10;86.30
53962;DHT22;39868;53.398;6.564;2023-12-28T01:06:58;12.10;86.30
53962;DHT22;39868;53.398;6.564;2023-12-28T01:09:29;12.20;86.40
53962;DHT22;39868;53.398;6.564;2023-12-28T01:11:57;12.20;86.40
53962;DHT22;39868;53.398;6.564;2023-12-28T01:14:24;12.20;86.40
53962;DHT22;39868;53.398;6.564;2023-12-28T01:16:51;12.20;86.40
53962;DHT22;39868;53.398;6.564;2023-12-28T01:19:19;12.30;86.50
53962;DHT22;39868;53.398;6.564;2023-12-28T01:21:47;12.30;86.40
53962;DHT22;39868;53.398;6.564;2023-12-28T01:24:14;12.30;86.30
53962;DHT22;39868;53.398;6.564;2023-12-28T01:26:41;12.30;86.30
53962;DHT22;39868;53.398;6.564;2023-12-28T01:29:10;12.30;86.20
53962;DHT22;39868;53.398;6.564;2023-12-28T01:31:37;12.30;86.20
53962;DHT22;39868;53.398;6.564;2023-12-28T01:34:06;12.30;86.10
53962;DHT22;39868;53.398;6.564;2023-12-28T01:36:36;12.30;86.10
53962;DHT22;39868;53.398;6.564;2023-12-28T01:39:03;12.40;86.10
53962;DHT22;39868;53.398;6.564;2023-12-28T01:41:31;12.30;86.10
53962;DHT22;39868;53.398;6.564;2023-12-28T01:43:58;12.40;86.00
53962;DHT22;39868;53.398;6.564;2023-12-28T01:46:25;12.30;85.90
53962;DHT22;39868;53.398;6.564;2023-12-28T01:48:53;12.30;85.90
53962;DHT22;39868;53.398;6.564;2023-12-28T01:51:21;12.40;85.90
53962;DHT22;39868;53.398;6.564;2023-12-28T01:53:51;12.30;85.80
53962;DHT22;39868;53.398;6.564;2023-12-28T01:56:20;12.30;85.80
53962;DHT22;39868;53.398;6.564;2023-12-28T01:58:49;12.30;86.40
53962;DHT22;39868;53.398;6.564;2023-12-28T02:01:20;12.30;85.80
53962;DHT22;39868;53.398;6.564;2023-12-28T02:03:48;12.30;85.80
53962;DHT22;39868;53.398;6.564;2023-12-28T02:06:16;12.30;85.90
53962;DHT22;39868;53.398;6.564;2023-12-28T02:08:44;12.30;86.00
53962;DHT22;39868;53.398;6.564;2023-12-28T02:11:11;12.30;86.10
53962;DHT22;39868;53.398;6.564;2023-12-28T02:13:39;12.30;86.20
53962;DHT22;39868;53.398;6.564;2023-12-28T02:16:17;12.30;86.20
53962;DHT22;39868;53.398;6.564;2023-12-28T02:18:52;12.30;86.30
53962;DHT22;39868;53.398;6.564;2023-12-28T02:21:22;12.30;86.30
53962;DHT22;39868;53.398;6.564;2023-12-28T02:23:50;12.20;86.20
53962;DHT22;39868;53.398;6.564;2023-12-28T02:26:17;12.20;86.30
53962;DHT22;39868;53.398;6.564;2023-12-28T02:28:46;12.20;86.40
53962;DHT22;39868;53.398;6.564;2023-12-28T02:31:21;12.20;86.40
53962;DHT22;39868;53.398;6.564;2023-12-28T02:34:04;12.20;86.50
53962;DHT22;39868;53.398;6.564;2023-12-28T02:36:35;12.20;86.50
53962;DHT22;39868;53.398;6.564;2023-12-28T02:39:04;12.20;86.50
53962;DHT22;39868;53.398;6.564;2023-12-28T02:41:32;12.20;86.50
53962;DHT22;39868;53.398;6.564;2023-12-28T02:44:00;12.20;86.50
53962;DHT22;39868;53.398;6.564;2023-12-28T02:46:28;12.20;86.50
53962;DHT22;39868;53.398;6.564;2023-12-28T02:48:55;12.20;86.50
53962;DHT22;39868;53.398;6.564;2023-12-28T02:51:25;12.20;86.60
53962;DHT22;39868;53.398;6.564;2023-12-28T02:53:52;12.20;86.60
53962;DHT22;39868;53.398;6.564;2023-12-28T02:56:20;12.20;86.70
53962;DHT22;39868;53.398;6.564;2023-12-28T02:58:47;12.20;86.60
53962;DHT22;39868;53.398;6.564;2023-12-28T03:01:14;12.20;86.70
53962;DHT22;39868;53.398;6.564;2023-12-28T03:03:42;12.30;86.60
53962;DHT22;39868;53.398;6.564;2023-12-28T03:06:09;12.30;86.50
53962;DHT22;39868;53.398;6.564;2023-12-28T03:08:37;12.30;86.40
53962;DHT22;39868;53.398;6.564;2023-12-28T03:11:04;12.30;86.40
53962;DHT22;39868;53.398;6.564;2023-12-28T03:13:31;12.30;86.40
53962;DHT22;39868;53.398;6.564;2023-12-28T03:15:59;12.30;86.40
53962;DHT22;39868;53.398;6.564;2023-12-28T03:18:27;12.30;86.40
53962;DHT22;39868;53.398;6.564;2023-12-28T03:20:55;12.30;86.40
53962;DHT22;39868;53.398;6.564;2023-12-28T03:23:22;12.30;86.50
53962;DHT22;39868;53.398;6.564;2023-12-28T03:25:49;12.30;86.50
53962;DHT22;39868;53.398;6.564;2023-12-28T03:28:17;12.30;86.50
53962;DHT22;39868;53.398;6.564;2023-12-28T03:30:44;12.30;86.50
53962;DHT22;39868;53.398;6.564;2023-12-28T03:33:11;12.30;86.50
53962;DHT22;39868;53.398;6.564;2023-12-28T03:35:39;12.30;86.50
53962;DHT22;39868;53.398;6.564;2023-12-28T03:38:07;12.30;86.50
53962;DHT22;39868;53.398;6.564;2023-12-28T03:40:34;12.40;86.60
53962;DHT22;39868;53.398;6.564;2023-12-28T03:43:01;12.40;86.60
53962;DHT22;39868;53.398;6.564;2023-12-28T03:45:28;12.40;86.60
53962;DHT22;39868;53.398;6.564;2023-12-28T03:47:56;12.40;86.50
53962;DHT22;39868;53.398;6.564;2023-12-28T03:50:24;12.40;86.50
53962;DHT22;39868;53.398;6.564;2023-12-28T03:52:51;12.40;86.50
53962;DHT22;39868;53.398;6.564;2023-12-28T03:55:18;12.50;86.50
53962;DHT22;39868;53.398;6.564;2023-12-28T03:57:45;12.50;86.40
53962;DHT22;39868;53.398;6.564;2023-12-28T04:00:14;12.50;86.30
53962;DHT22;39868;53.398;6.564;2023-12-28T04:02:42;12.50;86.20
53962;DHT22;39868;53.398;6.564;2023-12-28T04:05:09;12.50;86.20
53962;DHT22;39868;53.398;6.564;2023-12-28T04:07:36;12.50;86.20
53962;DHT22;39868;53.398;6.564;2023-12-28T04:10:04;12.60;86.10
53962;DHT22;39868;53.398;6.564;2023-12-28T04:12:32;12.60;86.00
53962;DHT22;39868;53.398;6.564;2023-12-28T04:14:59;12.60;85.80
53962;DHT22;39868;53.398;6.564;2023-12-28T04:17:26;12.70;85.80
53962;DHT22;39868;53.398;6.564;2023-12-28T04:19:53;12.70;85.70
53962;DHT22;39868;53.398;6.564;2023-12-28T04:22:21;12.70;85.60
53962;DHT22;39868;53.398;6.564;2023-12-28T04:24:48;12.70;85.50
53962;DHT22;39868;53.398;6.564;2023-12-28T04:27:15;12.70;85.10
53962;DHT22;39868;53.398;6.564;2023-12-28T04:29:43;12.70;84.90
53962;DHT22;39868;53.398;6.564;2023-12-28T04:32:10;12.80;85.00
53962;DHT22;39868;53.398;6.564;2023-12-28T04:34:37;12.80;84.90
53962;DHT22;39868;53.398;6.564;2023-12-28T04:37:05;12.80;84.80
53962;DHT22;39868;53.398;6.564;2023-12-28T04:39:32;12.80;84.60
53962;DHT22;39868;53.398;6.564;2023-12-28T04:42:00;12.80;84.50
53962;DHT22;39868;53.398;6.564;2023-12-28T04:44:27;12.90;84.50
53962;DHT22;39868;53.398;6.564;2023-12-28T04:46:54;12.90;84.00
53962;DHT22;39868;53.398;6.564;2023-12-28T04:49:22;12.90;84.30
53962;DHT22;39868;53.398;6.564;2023-12-28T04:51:49;12.90;84.60
53962;DHT22;39868;53.398;6.564;2023-12-28T04:54:16;12.90;84.00
53962;DHT22;39868;53.398;6.564;2023-12-28T04:56:44;12.90;83.90
53962;DHT22;39868;53.398;6.564;2023-12-28T04:59:12;12.90;83.70
53962;DHT22;39868;53.398;6.564;2023-12-28T05:01:43;12.90;83.80
53962;DHT22;39868;53.398;6.564;2023-12-28T05:04:11;13.00;83.60
53962;DHT22;39868;53.398;6.564;2023-12-28T05:06:43;13.00;83.60
53962;DHT22;39868;53.398;6.564;2023-12-28T05:09:13;13.00;83.40
53962;DHT22;39868;53.398;6.564;2023-12-28T05:11:40;13.00;83.30
53962;DHT22;39868;53.398;6.564;2023-12-28T05:14:07;13.00;83.30
53962;DHT22;39868;53.398;6.564;2023-12-28T05:16:37;13.00;83.30
53962;DHT22;39868;53.398;6.564;2023-12-28T05:19:04;13.00;83.10
53962;DHT22;39868;53.398;6.564;2023-12-28T05:21:31;12.90;83.00
53962;DHT22;39868;53.398;6.564;2023-12-28T05:23:58;12.90;83.00
53962;DHT22;39868;53.398;6.564;2023-12-28T05:26:26;13.00;83.20
53962;DHT22;39868;53.398;6.564;2023-12-28T05:28:54;13.00;83.00
53962;DHT22;39868;53.398;6.564;2023-12-28T05:31:21;12.90;82.80
53962;DHT22;39868;53.398;6.564;2023-12-28T05:33:49;12.90;83.00
53962;DHT22;39868;53.398;6.564;2023-12-28T05:36:16;12.90;82.90
53962;DHT22;39868;53.398;6.564;2023-12-28T05:38:44;12.90;82.80
53962;DHT22;39868;53.398;6.564;2023-12-28T05:41:11;12.90;82.70
53962;DHT22;39868;53.398;6.564;2023-12-28T05:43:41;12.90;82.70
53962;DHT22;39868;53.398;6.564;2023-12-28T05:46:08;12.80;82.70
53962;DHT22;39868;53.398;6.564;2023-12-28T05:48:36;12.80;82.90
53962;DHT22;39868;53.398;6.564;2023-12-28T05:51:03;12.80;82.90
53962;DHT22;39868;53.398;6.564;2023-12-28T05:53:31;12.80;82.90
53962;DHT22;39868;53.398;6.564;2023-12-28T05:56:00;12.80;82.90
53962;DHT22;39868;53.398;6.564;2023-12-28T05:58:30;12.80;82.90
53962;DHT22;39868;53.398;6.564;2023-12-28T06:00:58;12.80;82.90
53962;DHT22;39868;53.398;6.564;2023-12-28T06:03:25;12.80;82.90
53962;DHT22;39868;53.398;6.564;2023-12-28T06:05:55;12.80;83.00
53962;DHT22;39868;53.398;6.564;2023-12-28T06:08:23;12.80;82.90
53962;DHT22;39868;53.398;6.564;2023-12-28T06:10:54;12.80;83.00
53962;DHT22;39868;53.398;6.564;2023-12-28T06:13:21;12.80;82.80
53962;DHT22;39868;53.398;6.564;2023-12-28T06:15:48;12.80;83.00
53962;DHT22;39868;53.398;6.564;2023-12-28T06:18:16;12.80;83.00
53962;DHT22;39868;53.398;6.564;2023-12-28T06:20:43;12.80;83.00
53962;DHT22;39868;53.398;6.564;2023-12-28T06:23:11;12.80;83.10
53962;DHT22;39868;53.398;6.564;2023-12-28T06:25:38;12.80;83.10
53962;DHT22;39868;53.398;6.564;2023-12-28T06:28:05;12.90;83.20
53962;DHT22;39868;53.398;6.564;2023-12-28T06:30:33;12.90;83.20
53962;DHT22;39868;53.398;6.564;2023-12-28T06:33:00;12.90;83.10
53962;DHT22;39868;53.398;6.564;2023-12-28T06:35:27;12.90;83.10
53962;DHT22;39868;53.398;6.564;2023-12-28T06:37:55;12.90;83.20
53962;DHT22;39868;53.398;6.564;2023-12-28T06:40:22;12.90;83.20
53962;DHT22;39868;53.398;6.564;2023-12-28T06:42:49;13.00;83.00
53962;DHT22;39868;53.398;6.564;2023-12-28T06:45:17;13.00;82.90
53962;DHT22;39868;53.398;6.564;2023-12-28T06:47:45;13.00;82.80
53962;DHT22;39868;53.398;6.564;2023-12-28T06:50:12;13.00;82.80
53962;DHT22;39868;53.398;6.564;2023-12-28T06:52:39;13.00;82.60
53962;DHT22;39868;53.398;6.564;2023-12-28T06:55:07;13.00;82.60
53962;DHT22;39868;53.398;6.564;2023-12-28T06:57:34;13.00;82.50
53962;DHT22;39868;53.398;6.564;2023-12-28T07:00:01;13.00;82.30
53962;DHT22;39868;53.398;6.564;2023-12-28T07:02:30;13.00;82.30
53962;DHT22;39868;53.398;6.564;2023-12-28T07:04:57;13.00;82.10
53962;DHT22;39868;53.398;6.564;2023-12-28T07:07:24;13.00;82.10
53962;DHT22;39868;53.398;6.564;2023-12-28T07:09:52;13.00;82.30
53962;DHT22;39868;53.398;6.564;2023-12-28T07:12:19;13.00;82.20
53962;DHT22;39868;53.398;6.564;2023-12-28T07:14:47;13.00;82.10
53962;DHT22;39868;53.398;6.564;2023-12-28T07:17:14;13.00;82.40
53962;DHT22;39868;53.398;6.564;2023-12-28T07:19:44;13.00;82.20
53962;DHT22;39868;53.398;6.564;2023-12-28T07:22:11;13.00;82.20
53962;DHT22;39868;53.398;6.564;2023-12-28T07:24:39;13.00;82.20
53962;DHT22;39868;53.398;6.564;2023-12-28T07:27:06;13.00;82.10
53962;DHT22;39868;53.398;6.564;2023-12-28T07:29:33;13.00;82.10
53962;DHT22;39868;53.398;6.564;2023-12-28T07:32:00;13.10;82.20
53962;DHT22;39868;53.398;6.564;2023-12-28T07:34:28;13.10;82.30
53962;DHT22;39868;53.398;6.564;2023-12-28T07:36:55;13.10;82.20
53962;DHT22;39868;53.398;6.564;2023-12-28T07:39:22;13.10;82.30
53962;DHT22;39868;53.398;6.564;2023-12-28T07:41:50;13.10;82.00
53962;DHT22;39868;53.398;6.564;2023-12-28T07:44:17;13.10;82.10
53962;DHT22;39868;53.398;6.564;2023-12-28T07:46:44;13.10;82.00
53962;DHT22;39868;53.398;6.564;2023-12-28T07:49:12;13.10;82.10
53962;DHT22;39868;53.398;6.564;2023-12-28T07:51:39;13.10;82.10
53962;DHT22;39868;53.398;6.564;2023-12-28T07:54:06;13.20;82.20
53962;DHT22;39868;53.398;6.564;2023-12-28T07:56:34;13.20;82.20
53962;DHT22;39868;53.398;6.564;2023-12-28T07:59:01;13.20;82.10
53962;DHT22;39868;53.398;6.564;2023-12-28T08:01:28;13.20;82.00
53962;DHT22;39868;53.398;6.564;2023-12-28T08:03:55;13.20;82.10
53962;DHT22;39868;53.398;6.564;2023-12-28T08:06:23;13.20;82.10
53962;DHT22;39868;53.398;6.564;2023-12-28T08:08:50;13.20;82.10
53962;DHT22;39868;53.398;6.564;2023-12-28T08:11:17;13.20;82.20
53962;DHT22;39868;53.398;6.564;2023-12-28T08:13:44;13.20;82.10
53962;DHT22;39868;53.398;6.564;2023-12-28T08:16:12;13.20;82.20
53962;DHT22;39868;53.398;6.564;2023-12-28T08:18:39;13.20;82.20
53962;DHT22;39868;53.398;6.564;2023-12-28T08:21:06;13.30;82.30
53962;DHT22;39868;53.398;6.564;2023-12-28T08:23:34;13.30;82.40
53962;DHT22;39868;53.398;6.564;2023-12-28T08:26:01;13.30;82.40
53962;DHT22;39868;53.398;6.564;2023-12-28T08:28:29;13.30;82.20
53962;DHT22;39868;53.398;6.564;2023-12-28T08:30:56;13.40;82.30
53962;DHT22;39868;53.398;6.564;2023-12-28T08:33:24;13.40;82.10
53962;DHT22;39868;53.398;6.564;2023-12-28T08:35:51;13.40;82.10
53962;DHT22;39868;53.398;6.564;2023-12-28T08:38:19;13.40;82.00
53962;DHT22;39868;53.398;6.564;2023-12-28T08:40:46;13.40;82.10
53962;DHT22;39868;53.398;6.564;2023-12-28T08:43:13;13.40;82.00
53962;DHT22;39868;53.398;6.564;2023-12-28T08:45:40;13.50;82.10
53962;DHT22;39868;53.398;6.564;2023-12-28T08:48:08;13.50;81.90
53962;DHT22;39868;53.398;6.564;2023-12-28T08:50:35;13.50;82.00
53962;DHT22;39868;53.398;6.564;2023-12-28T08:53:03;13.50;82.00
53962;DHT22;39868;53.398;6.564;2023-12-28T08:55:30;13.50;81.90
53962;DHT22;39868;53.398;6.564;2023-12-28T08:57:57;13.50;81.70
53962;DHT22;39868;53.398;6.564;2023-12-28T09:00:25;13.60;81.70
53962;DHT22;39868;53.398;6.564;2023-12-28T09:02:52;13.60;81.70
53962;DHT22;39868;53.398;6.564;2023-12-28T09:05:20;13.60;81.60
53962;DHT22;39868;53.398;6.564;2023-12-28T09:07:47;13.60;81.70
53962;DHT22;39868;53.398;6.564;2023-12-28T09:10:14;13.60;81.50
53962;DHT22;39868;53.398;6.564;2023-12-28T09:12:42;13.60;81.50
53962;DHT22;39868;53.398;6.564;2023-12-28T09:15:09;13.60;81.30
53962;DHT22;39868;53.398;6.564;2023-12-28T09:17:37;13.60;81.40
53962;DHT22;39868;53.398;6.564;2023-12-28T09:20:05;13.70;81.20
53962;DHT22;39868;53.398;6.564;2023-12-28T09:22:33;13.70;81.40
53962;DHT22;39868;53.398;6.564;2023-12-28T09:25:00;13.70;81.40
53962;DHT22;39868;53.398;6.564;2023-12-28T09:27:28;13.70;81.20
53962;DHT22;39868;53.398;6.564;2023-12-28T09:29:55;13.70;81.10
53962;DHT22;39868;53.398;6.564;2023-12-28T09:32:22;13.70;81.20
53962;DHT22;39868;53.398;6.564;2023-12-28T09:34:50;13.70;81.30
53962;DHT22;39868;53.398;6.564;2023-12-28T09:37:17;13.80;81.30
53962;DHT22;39868;53.398;6.564;2023-12-28T09:39:45;13.80;81.40
53962;DHT22;39868;53.398;6.564;2023-12-28T09:42:34;13.80;81.30
53962;DHT22;39868;53.398;6.564;2023-12-28T09:45:06;13.80;81.00
53962;DHT22;39868;53.398;6.564;2023-12-28T09:47:33;13.80;81.20
53962;DHT22;39868;53.398;6.564;2023-12-28T09:50:00;13.80;81.20
53962;DHT22;39868;53.398;6.564;2023-12-28T09:52:28;13.80;81.10
53962;DHT22;39868;53.398;6.564;2023-12-28T09:54:55;13.80;81.10
53962;DHT22;39868;53.398;6.564;2023-12-28T09:57:23;13.90;81.00
53962;DHT22;39868;53.398;6.564;2023-12-28T09:59:51;13.90;81.50
53962;DHT22;39868;53.398;6.564;2023-12-28T10:02:19;13.90;80.90
53962;DHT22;39868;53.398;6.564;2023-12-28T10:04:46;13.90;80.90
53962;DHT22;39868;53.398;6.564;2023-12-28T10:07:13;13.90;80.90
53962;DHT22;39868;53.398;6.564;2023-12-28T10:09:40;13.90;80.90
53962;DHT22;39868;53.398;6.564;2023-12-28T10:12:09;13.90;81.00
53962;DHT22;39868;53.398;6.564;2023-12-28T10:14:36;13.90;80.90
53962;DHT22;39868;53.398;6.564;2023-12-28T10:17:03;13.80;80.80
53962;DHT22;39868;53.398;6.564;2023-12-28T10:19:31;13.80;80.80
53962;DHT22;39868;53.398;6.564;2023-12-28T10:21:59;13.80;80.80
53962;DHT22;39868;53.398;6.564;2023-12-28T10:24:27;13.80;81.00
53962;DHT22;39868;53.398;6.564;2023-12-28T10:26:54;13.80;81.00
53962;DHT22;39868;53.398;6.564;2023-12-28T10:29:25;13.80;81.00
53962;DHT22;39868;53.398;6.564;2023-12-28T10:31:53;13.80;81.10
53962;DHT22;39868;53.398;6.564;2023-12-28T10:34:21;13.80;81.00
53962;DHT22;39868;53.398;6.564;2023-12-28T10:36:50;13.80;81.00
53962;DHT22;39868;53.398;6.564;2023-12-28T10:39:20;13.80;81.00
53962;DHT22;39868;53.398;6.564;2023-12-28T10:41:49;13.80;80.90
53962;DHT22;39868;53.398;6.564;2023-12-28T10:44:20;13.80;81.00
53962;DHT22;39868;53.398;6.564;2023-12-28T10:46:51;13.80;80.90
53962;DHT22;39868;53.398;6.564;2023-12-28T10:49:25;13.80;81.10
53962;DHT22;39868;53.398;6.564;2023-12-28T10:51:53;13.80;81.20
53962;DHT22;39868;53.398;6.564;2023-12-28T10:54:52;13.80;81.20
53962;DHT22;39868;53.398;6.564;2023-12-28T10:57:29;13.80;81.00
53962;DHT22;39868;53.398;6.564;2023-12-28T11:00:14;13.80;80.90
53962;DHT22;39868;53.398;6.564;2023-12-28T11:02:46;13.80;80.90
53962;DHT22;39868;53.398;6.564;2023-12-28T11:05:19;13.80;80.90
53962;DHT22;39868;53.398;6.564;2023-12-28T11:07:48;13.80;81.00
53962;DHT22;39868;53.398;6.564;2023-12-28T11:10:17;13.80;81.00
53962;DHT22;39868;53.398;6.564;2023-12-28T11:12:45;13.80;80.90
53962;DHT22;39868;53.398;6.564;2023-12-28T11:15:14;13.80;80.80
53962;DHT22;39868;53.398;6.564;2023-12-28T11:17:42;13.80;80.70
53962;DHT22;39868;53.398;6.564;2023-12-28T11:20:11;13.80;80.70
53962;DHT22;39868;53.398;6.564;2023-12-28T11:22:39;13.80;80.80
53962;DHT22;39868;53.398;6.564;2023-12-28T11:25:17;13.80;81.10
53962;DHT22;39868;53.398;6.564;2023-12-28T11:27:46;13.80;81.20
53962;DHT22;39868;53.398;6.564;2023-12-28T11:30:13;13.80;81.30
53962;DHT22;39868;53.398;6.564;2023-12-28T11:32:42;13.70;81.20
53962;DHT22;39868;53.398;6.564;2023-12-28T11:35:13;13.70;81.30
53962;DHT22;39868;53.398;6.564;2023-12-28T11:37:46;13.70;81.30
53962;DHT22;39868;53.398;6.564;2023-12-28T11:40:17;13.70;81.30
53962;DHT22;39868;53.398;6.564;2023-12-28T11:42:50;13.70;81.30
53962;DHT22;39868;53.398;6.564;2023-12-28T11:45:19;13.70;81.20
53962;DHT22;39868;53.398;6.564;2023-12-28T11:47:58;13.70;81.10
53962;DHT22;39868;53.398;6.564;2023-12-28T11:50:26;13.70;81.20
53962;DHT22;39868;53.398;6.564;2023-12-28T11:52:53;13.80;81.30
53962;DHT22;39868;53.398;6.564;2023-12-28T11:55:23;13.80;81.40
53962;DHT22;39868;53.398;6.564;2023-12-28T11:57:51;13.80;81.20
53962;DHT22;39868;53.398;6.564;2023-12-28T12:00:19;13.90;81.10
53962;DHT22;39868;53.398;6.564;2023-12-28T12:02:47;13.90;81.20
53962;DHT22;39868;53.398;6.564;2023-12-28T12:05:15;13.90;81.20
53962;DHT22;39868;53.398;6.564;2023-12-28T12:07:42;13.90;80.90
53962;DHT22;39868;53.398;6.564;2023-12-28T12:10:15;13.90;80.70
53962;DHT22;39868;53.398;6.564;2023-12-28T12:12:43;13.90;80.60
53962;DHT22;39868;53.398;6.564;2023-12-28T12:15:11;13.90;80.60
53962;DHT22;39868;53.398;6.564;2023-12-28T12:17:38;13.90;80.60
53962;DHT22;39868;53.398;6.564;2023-12-28T12:20:08;13.90;80.60
53962;DHT22;39868;53.398;6.564;2023-12-28T12:22:36;13.90;80.50
53962;DHT22;39868;53.398;6.564;2023-12-28T12:25:05;13.90;80.60
53962;DHT22;39868;53.398;6.564;2023-12-28T12:27:35;13.90;80.50
53962;DHT22;39868;53.398;6.564;2023-12-28T12:30:03;13.90;80.60
53962;DHT22;39868;53.398;6.564;2023-12-28T12:32:31;13.90;80.50
53962;DHT22;39868;53.398;6.564;2023-12-28T12:34:59;14.00;80.40
53962;DHT22;39868;53.398;6.564;2023-12-28T12:37:26;13.90;80.30
53962;DHT22;39868;53.398;6.564;2023-12-28T12:39:54;13.90;80.30
53962;DHT22;39868;53.398;6.564;2023-12-28T12:42:21;13.90;80.10
53962;DHT22;39868;53.398;6.564;2023-12-28T12:44:49;13.90;80.20
53962;DHT22;39868;53.398;6.564;2023-12-28T12:47:16;14.00;80.30
53962;DHT22;39868;53.398;6.564;2023-12-28T12:49:44;14.00;80.30
53962;DHT22;39868;53.398;6.564;2023-12-28T12:52:12;14.00;80.10
53962;DHT22;39868;53.398;6.564;2023-12-28T12:54:40;14.00;80.00
53962;DHT22;39868;53.398;6.564;2023-12-28T12:57:07;14.00;80.10
53962;DHT22;39868;53.398;6.564;2023-12-28T12:59:34;14.00;80.60
53962;DHT22;39868;53.398;6.564;2023-12-28T13:02:01;13.90;79.90
53962;DHT22;39868;53.398;6.564;2023-12-28T13:04:29;13.90;80.10
53962;DHT22;39868;53.398;6.564;2023-12-28T13:06:58;13.90;80.20
53962;DHT22;39868;53.398;6.564;2023-12-28T13:09:25;14.00;80.20
53962;DHT22;39868;53.398;6.564;2023-12-28T13:11:52;14.00;80.20
53962;DHT22;39868;53.398;6.564;2023-12-28T13:14:20;14.00;80.00
53962;DHT22;39868;53.398;6.564;2023-12-28T13:16:47;14.00;80.30
53962;DHT22;39868;53.398;6.564;2023-12-28T13:19:23;13.90;79.90
53962;DHT22;39868;53.398;6.564;2023-12-28T13:21:51;14.00;80.00
53962;DHT22;39868;53.398;6.564;2023-12-28T13:24:18;13.90;80.00
53962;DHT22;39868;53.398;6.564;2023-12-28T13:26:45;14.00;79.90
53962;DHT22;39868;53.398;6.564;2023-12-28T13:29:13;14.00;79.60
53962;DHT22;39868;53.398;6.564;2023-12-28T13:31:43;14.00;79.80
53962;DHT22;39868;53.398;6.564;2023-12-28T13:34:12;14.00;79.70
53962;DHT22;39868;53.398;6.564;2023-12-28T13:36:39;13.90;79.50
53962;DHT22;39868;53.398;6.564;2023-12-28T13:39:07;13.90;79.50
53962;DHT22;39868;53.398;6.564;2023-12-28T13:41:38;13.90;79.60
53962;DHT22;39868;53.398;6.564;2023-12-28T13:44:05;13.90;79.50
53962;DHT22;39868;53.398;6.564;2023-12-28T13:46:37;13.90;79.40
53962;DHT22;39868;53.398;6.564;2023-12-28T13:49:04;13.90;79.40
53962;DHT22;39868;53.398;6.564;2023-12-28T13:51:31;13.90;79.40
53962;DHT22;39868;53.398;6.564;2023-12-28T13:53:59;13.90;79.40
53962;DHT22;39868;53.398;6.564;2023-12-28T13:56:28;13.90;79.90
53962;DHT22;39868;53.398;6.564;2023-12-28T13:58:55;13.80;79.30
53962;DHT22;39868;53.398;6.564;2023-12-28T14:01:23;13.80;79.40
53962;DHT22;39868;53.398;6.564;2023-12-28T14:03:50;13.80;79.40
53962;DHT22;39868;53.398;6.564;2023-12-28T14:06:18;13.80;79.60
53962;DHT22;39868;53.398;6.564;2023-12-28T14:08:46;13.80;79.60
53962;DHT22;39868;53.398;6.564;2023-12-28T14:11:13;13.70;79.60
53962;DHT22;39868;53.398;6.564;2023-12-28T14:13:41;13.70;79.70
53962;DHT22;39868;53.398;6.564;2023-12-28T14:16:08;13.70;79.80
53962;DHT22;39868;53.398;6.564;2023-12-28T14:18:36;13.70;79.90
53962;DHT22;39868;53.398;6.564;2023-12-28T14:21:04;13.70;80.50
53962;DHT22;39868;53.398;6.564;2023-12-28T14:23:31;13.60;79.90
53962;DHT22;39868;53.398;6.564;2023-12-28T14:25:59;13.60;80.00
53962;DHT22;39868;53.398;6.564;2023-12-28T14:28:26;13.60;80.00
53962;DHT22;39868;53.398;6.564;2023-12-28T14:30:56;13.60;80.10
53962;DHT22;39868;53.398;6.564;2023-12-28T14:33:24;13.60;80.20
53962;DHT22;39868;53.398;6.564;2023-12-28T14:35:52;13.50;80.20
53962;DHT22;39868;53.398;6.564;2023-12-28T14:38:20;13.60;80.30
53962;DHT22;39868;53.398;6.564;2023-12-28T14:40:47;13.50;80.30
53962;DHT22;39868;53.398;6.564;2023-12-28T14:43:16;13.50;80.30
53962;DHT22;39868;53.398;6.564;2023-12-28T14:45:43;13.50;80.40
53962;DHT22;39868;53.398;6.564;2023-12-28T14:48:12;13.50;80.40
53962;DHT22;39868;53.398;6.564;2023-12-28T14:50:40;13.50;80.30
53962;DHT22;39868;53.398;6.564;2023-12-28T14:53:08;13.50;80.50
53962;DHT22;39868;53.398;6.564;2023-12-28T14:55:38;13.40;80.70
53962;DHT22;39868;53.398;6.564;2023-12-28T14:58:05;13.50;80.90
53962;DHT22;39868;53.398;6.564;2023-12-28T15:00:32;13.40;81.10
53962;DHT22;39868;53.398;6.564;2023-12-28T15:03:00;13.40;81.30
53962;DHT22;39868;53.398;6.564;2023-12-28T15:05:27;13.30;81.40
53962;DHT22;39868;53.398;6.564;2023-12-28T15:07:55;13.30;81.40
53962;DHT22;39868;53.398;6.564;2023-12-28T15:10:22;13.30;81.60
53962;DHT22;39868;53.398;6.564;2023-12-28T15:12:50;13.30;81.80
53962;DHT22;39868;53.398;6.564;2023-12-28T15:15:17;13.20;81.80
53962;DHT22;39868;53.398;6.564;2023-12-28T15:17:45;13.20;81.90
53962;DHT22;39868;53.398;6.564;2023-12-28T15:20:12;13.10;82.10
53962;DHT22;39868;53.398;6.564;2023-12-28T15:22:40;13.10;82.30
53962;DHT22;39868;53.398;6.564;2023-12-28T15:25:07;13.10;82.40
53962;DHT22;39868;53.398;6.564;2023-12-28T15:27:35;13.00;82.50
53962;DHT22;39868;53.398;6.564;2023-12-28T15:30:04;13.00;82.60
53962;DHT22;39868;53.398;6.564;2023-12-28T15:32:32;12.90;82.60
53962;DHT22;39868;53.398;6.564;2023-12-28T15:35:00;12.90;82.70